sensor_id;sensor_type;location;lat;lon;timestamp;temperature;humidity
21770;DHT22;11046;49.558;8.674;2023-04-24T00:02:23;11.60;97.10
21770;DHT22;11046;49.558;8.674;2023-04-24T00:05:24;11.60;97.10
21770;DHT22;11046;49.558;8.674;2023-04-24T00:08:25;11.60;97.00
21770;DHT22;11046;49.558;8.674;2023-04-24T00:11:26;11.70;97.00
21770;DHT22;11046;49.558;8.674;2023-04-24T00:14:27;11.70;97.00
21770;DHT22;11046;49.558;8.674;2023-04-24T00:17:27;11.70;96.90
21770;DHT22;11046;49.558;8.674;2023-04-24T00:20:28;11.70;96.90
21770;DHT22;11046;49.558;8.674;2023-04-24T00:23:30;11.70;96.90
21770;DHT22;11046;49.558;8.674;2023-04-24T00:26:30;11.60;96.90
21770;DHT22;11046;49.558;8.674;2023-04-24T00:29:31;11.70;96.90
21770;DHT22;11046;49.558;8.674;2023-04-24T00:32:32;11.70;96.80
21770;DHT22;11046;49.558;8.674;2023-04-24T00:35:32;11.80;96.80
21770;DHT22;11046;49.558;8.674;2023-04-24T00:38:33;11.70;96.80
21770;DHT22;11046;49.558;8.674;2023-04-24T00:41:33;11.60;96.90
21770;DHT22;11046;49.558;8.674;2023-04-24T00:44:34;11.60;97.00
21770;DHT22;11046;49.558;8.674;2023-04-24T00:47:35;11.60;97.00
21770;DHT22;11046;49.558;8.674;2023-04-24T00:50:36;11.60;97.10
21770;DHT22;11046;49.558;8.674;2023-04-24T00:53:37;11.60;97.10
21770;DHT22;11046;49.558;8.674;2023-04-24T00:56:37;11.60;97.20
21770;DHT22;11046;49.558;8.674;2023-04-24T00:59:38;11.60;97.10
21770;DHT22;11046;49.558;8.674;2023-04-24T01:02:41;11.60;97.40
21770;DHT22;11046;49.558;8.674;2023-04-24T01:05:45;11.70;97.10
21770;DHT22;11046;49.558;8.674;2023-04-24T01:08:47;11.60;97.10
21770;DHT22;11046;49.558;8.674;2023-04-24T01:11:49;11.60;97.10
21770;DHT22;11046;49.558;8.674;2023-04-24T01:14:50;11.60;97.10
21770;DHT22;11046;49.558;8.674;2023-04-24T01:17:51;11.70;97.10
21770;DHT22;11046;49.558;8.674;2023-04-24T01:20:53;11.70;97.00
21770;DHT22;11046;49.558;8.674;2023-04-24T01:23:54;11.60;97.10
21770;DHT22;11046;49.558;8.674;2023-04-24T01:26:56;11.60;97.10
21770;DHT22;11046;49.558;8.674;2023-04-24T01:29:57;11.70;96.90
21770;DHT22;11046;49.558;8.674;2023-04-24T01:32:58;11.70;97.00
21770;DHT22;11046;49.558;8.674;2023-04-24T01:35:59;11.70;96.90
21770;DHT22;11046;49.558;8.674;2023-04-24T01:39:00;11.60;97.00
21770;DHT22;11046;49.558;8.674;2023-04-24T01:42:01;11.50;97.20
21770;DHT22;11046;49.558;8.674;2023-04-24T01:45:04;11.50;97.10
21770;DHT22;11046;49.558;8.674;2023-04-24T01:48:05;11.50;97.10
21770;DHT22;11046;49.558;8.674;2023-04-24T01:51:06;11.50;97.10
21770;DHT22;11046;49.558;8.674;2023-04-24T01:54:06;11.60;97.10
21770;DHT22;11046;49.558;8.674;2023-04-24T01:57:07;11.50;97.00
21770;DHT22;11046;49.558;8.674;2023-04-24T02:00:09;11.50;97.10
21770;DHT22;11046;49.558;8.674;2023-04-24T02:03:14;11.50;97.10
21770;DHT22;11046;49.558;8.674;2023-04-24T02:06:15;11.50;97.20
21770;DHT22;11046;49.558;8.674;2023-04-24T02:09:15;11.50;97.10
21770;DHT22;11046;49.558;8.674;2023-04-24T02:12:16;11.50;97.10
21770;DHT22;11046;49.558;8.674;2023-04-24T02:15:18;11.50;97.20
21770;DHT22;11046;49.558;8.674;2023-04-24T02:18:19;11.50;97.10
21770;DHT22;11046;49.558;8.674;2023-04-24T02:21:20;11.50;97.10
21770;DHT22;11046;49.558;8.674;2023-04-24T02:24:20;11.50;97.20
21770;DHT22;11046;49.558;8.674;2023-04-24T02:27:21;11.50;97.20
21770;DHT22;11046;49.558;8.674;2023-04-24T02:30:21;11.50;97.20
21770;DHT22;11046;49.558;8.674;2023-04-24T02:33:22;11.50;97.30
21770;DHT22;11046;49.558;8.674;2023-04-24T02:36:23;11.40;97.30
21770;DHT22;11046;49.558;8.674;2023-04-24T02:39:23;11.40;97.30
21770;DHT22;11046;49.558;8.674;2023-04-24T02:42:24;11.40;97.40
21770;DHT22;11046;49.558;8.674;2023-04-24T02:45:25;11.40;97.40
21770;DHT22;11046;49.558;8.674;2023-04-24T02:48:25;11.40;97.30
21770;DHT22;11046;49.558;8.674;2023-04-24T02:51:26;11.50;97.40
21770;DHT22;11046;49.558;8.674;2023-04-24T02:54:27;11.50;97.40
21770;DHT22;11046;49.558;8.674;2023-04-24T02:57:27;11.40;97.40
21770;DHT22;11046;49.558;8.674;2023-04-24T03:00:28;11.30;97.50
21770;DHT22;11046;49.558;8.674;2023-04-24T03:03:29;11.30;97.90
21770;DHT22;11046;49.558;8.674;2023-04-24T03:06:29;11.00;98.30
21770;DHT22;11046;49.558;8.674;2023-04-24T03:09:31;10.90;98.50
21770;DHT22;11046;49.558;8.674;2023-04-24T03:12:32;10.80;98.40
21770;DHT22;11046;49.558;8.674;2023-04-24T03:15:32;10.90;98.40
21770;DHT22;11046;49.558;8.674;2023-04-24T03:18:33;10.70;98.40
21770;DHT22;11046;49.558;8.674;2023-04-24T03:21:34;10.70;98.50
21770;DHT22;11046;49.558;8.674;2023-04-24T03:24:36;10.70;98.50
21770;DHT22;11046;49.558;8.674;2023-04-24T03:27:38;10.60;98.60
21770;DHT22;11046;49.558;8.674;2023-04-24T03:30:53;10.70;98.70
21770;DHT22;11046;49.558;8.674;2023-04-24T03:33:55;10.60;98.70
21770;DHT22;11046;49.558;8.674;2023-04-24T03:36:56;10.60;98.80
21770;DHT22;11046;49.558;8.674;2023-04-24T03:39:57;10.60;98.80
21770;DHT22;11046;49.558;8.674;2023-04-24T03:42:59;10.60;98.80
21770;DHT22;11046;49.558;8.674;2023-04-24T03:46:00;10.50;98.90
21770;DHT22;11046;49.558;8.674;2023-04-24T03:49:03;10.50;98.90
21770;DHT22;11046;49.558;8.674;2023-04-24T03:52:08;10.50;99.10
21770;DHT22;11046;49.558;8.674;2023-04-24T03:55:08;10.40;99.10
21770;DHT22;11046;49.558;8.674;2023-04-24T03:58:16;10.50;99.10
21770;DHT22;11046;49.558;8.674;2023-04-24T04:01:18;10.40;99.10
21770;DHT22;11046;49.558;8.674;2023-04-24T04:04:30;10.30;99.10
21770;DHT22;11046;49.558;8.674;2023-04-24T04:07:30;10.30;99.30
21770;DHT22;11046;49.558;8.674;2023-04-24T04:10:31;10.20;99.30
21770;DHT22;11046;49.558;8.674;2023-04-24T04:13:32;10.20;99.40
21770;DHT22;11046;49.558;8.674;2023-04-24T04:16:33;10.10;99.50
21770;DHT22;11046;49.558;8.674;2023-04-24T04:19:37;10.10;99.60
21770;DHT22;11046;49.558;8.674;2023-04-24T04:22:37;10.10;99.60
21770;DHT22;11046;49.558;8.674;2023-04-24T04:25:41;10.20;99.50
21770;DHT22;11046;49.558;8.674;2023-04-24T04:28:42;10.10;99.50
21770;DHT22;11046;49.558;8.674;2023-04-24T04:31:45;10.00;99.50
21770;DHT22;11046;49.558;8.674;2023-04-24T04:34:47;9.90;99.50
21770;DHT22;11046;49.558;8.674;2023-04-24T04:37:50;9.90;99.50
21770;DHT22;11046;49.558;8.674;2023-04-24T04:41:06;9.90;99.50
21770;DHT22;11046;49.558;8.674;2023-04-24T04:44:08;9.80;99.50
21770;DHT22;11046;49.558;8.674;2023-04-24T04:47:09;9.80;99.30
21770;DHT22;11046;49.558;8.674;2023-04-24T04:50:11;9.80;99.20
21770;DHT22;11046;49.558;8.674;2023-04-24T04:53:12;9.80;99.20
21770;DHT22;11046;49.558;8.674;2023-04-24T04:56:13;9.80;99.10
21770;DHT22;11046;49.558;8.674;2023-04-24T04:59:16;9.70;99.10
21770;DHT22;11046;49.558;8.674;2023-04-24T05:02:17;9.70;99.10
21770;DHT22;11046;49.558;8.674;2023-04-24T05:05:18;9.80;99.00
21770;DHT22;11046;49.558;8.674;2023-04-24T05:08:19;9.70;99.00
21770;DHT22;11046;49.558;8.674;2023-04-24T05:11:20;9.70;98.90
21770;DHT22;11046;49.558;8.674;2023-04-24T05:14:21;9.70;99.00
21770;DHT22;11046;49.558;8.674;2023-04-24T05:17:23;9.60;99.10
21770;DHT22;11046;49.558;8.674;2023-04-24T05:20:25;9.60;99.10
21770;DHT22;11046;49.558;8.674;2023-04-24T05:23:26;9.60;99.30
21770;DHT22;11046;49.558;8.674;2023-04-24T05:26:28;9.60;99.40
21770;DHT22;11046;49.558;8.674;2023-04-24T05:29:32;9.60;99.30
21770;DHT22;11046;49.558;8.674;2023-04-24T05:32:33;9.70;99.50
21770;DHT22;11046;49.558;8.674;2023-04-24T05:35:35;9.60;99.60
21770;DHT22;11046;49.558;8.674;2023-04-24T05:38:36;9.70;99.70
21770;DHT22;11046;49.558;8.674;2023-04-24T05:41:36;9.80;99.80
21770;DHT22;11046;49.558;8.674;2023-04-24T05:44:37;9.90;99.60
21770;DHT22;11046;49.558;8.674;2023-04-24T05:47:38;10.00;99.50
21770;DHT22;11046;49.558;8.674;2023-04-24T05:50:39;10.00;99.30
21770;DHT22;11046;49.558;8.674;2023-04-24T05:53:40;10.10;99.30
21770;DHT22;11046;49.558;8.674;2023-04-24T05:56:41;10.10;99.20
21770;DHT22;11046;49.558;8.674;2023-04-24T05:59:42;10.10;99.10
21770;DHT22;11046;49.558;8.674;2023-04-24T06:02:43;10.20;99.00
21770;DHT22;11046;49.558;8.674;2023-04-24T06:05:46;10.30;98.90
21770;DHT22;11046;49.558;8.674;2023-04-24T06:08:47;10.40;98.90
21770;DHT22;11046;49.558;8.674;2023-04-24T06:11:49;10.50;98.90
21770;DHT22;11046;49.558;8.674;2023-04-24T06:14:50;10.80;98.90
21770;DHT22;11046;49.558;8.674;2023-04-24T06:17:58;11.10;98.70
21770;DHT22;11046;49.558;8.674;2023-04-24T06:21:00;11.20;98.40
21770;DHT22;11046;49.558;8.674;2023-04-24T06:24:00;11.20;98.30
21770;DHT22;11046;49.558;8.674;2023-04-24T06:27:01;11.20;98.30
21770;DHT22;11046;49.558;8.674;2023-04-24T06:30:02;11.00;98.10
21770;DHT22;11046;49.558;8.674;2023-04-24T06:33:03;11.00;98.10
21770;DHT22;11046;49.558;8.674;2023-04-24T06:36:03;10.90;98.10
21770;DHT22;11046;49.558;8.674;2023-04-24T06:39:04;10.90;98.10
21770;DHT22;11046;49.558;8.674;2023-04-24T06:42:05;11.00;98.10
21770;DHT22;11046;49.558;8.674;2023-04-24T06:45:08;10.90;97.90
21770;DHT22;11046;49.558;8.674;2023-04-24T06:48:09;10.90;97.90
21770;DHT22;11046;49.558;8.674;2023-04-24T06:51:10;10.80;97.80
21770;DHT22;11046;49.558;8.674;2023-04-24T06:54:10;10.70;97.90
21770;DHT22;11046;49.558;8.674;2023-04-24T06:57:11;10.60;98.00
21770;DHT22;11046;49.558;8.674;2023-04-24T07:00:12;10.50;98.00
21770;DHT22;11046;49.558;8.674;2023-04-24T07:03:13;10.40;98.10
21770;DHT22;11046;49.558;8.674;2023-04-24T07:06:13;10.40;98.20
21770;DHT22;11046;49.558;8.674;2023-04-24T07:09:15;10.20;98.20
21770;DHT22;11046;49.558;8.674;2023-04-24T07:12:18;10.00;98.40
21770;DHT22;11046;49.558;8.674;2023-04-24T07:15:20;10.00;98.60
21770;DHT22;11046;49.558;8.674;2023-04-24T07:18:21;10.00;98.70
21770;DHT22;11046;49.558;8.674;2023-04-24T07:21:22;10.00;98.70
21770;DHT22;11046;49.558;8.674;2023-04-24T07:24:22;10.10;98.70
21770;DHT22;11046;49.558;8.674;2023-04-24T07:27:24;10.20;98.50
21770;DHT22;11046;49.558;8.674;2023-04-24T07:30:25;10.20;98.40
21770;DHT22;11046;49.558;8.674;2023-04-24T07:33:26;10.30;98.30
21770;DHT22;11046;49.558;8.674;2023-04-24T07:36:27;10.60;98.50
21770;DHT22;11046;49.558;8.674;2023-04-24T07:39:28;11.20;98.30
21770;DHT22;11046;49.558;8.674;2023-04-24T07:42:29;11.90;97.90
21770;DHT22;11046;49.558;8.674;2023-04-24T07:45:34;12.30;97.00
21770;DHT22;11046;49.558;8.674;2023-04-24T07:48:37;12.30;96.20
21770;DHT22;11046;49.558;8.674;2023-04-24T07:51:38;12.10;95.90
21770;DHT22;11046;49.558;8.674;2023-04-24T07:54:39;11.90;95.80
21770;DHT22;11046;49.558;8.674;2023-04-24T07:57:39;11.70;95.90
21770;DHT22;11046;49.558;8.674;2023-04-24T08:00:40;11.70;96.00
21770;DHT22;11046;49.558;8.674;2023-04-24T08:03:41;11.70;96.10
21770;DHT22;11046;49.558;8.674;2023-04-24T08:06:41;11.70;96.10
21770;DHT22;11046;49.558;8.674;2023-04-24T08:09:42;11.70;95.80
21770;DHT22;11046;49.558;8.674;2023-04-24T08:12:42;11.90;95.60
21770;DHT22;11046;49.558;8.674;2023-04-24T08:15:43;12.00;95.40
21770;DHT22;11046;49.558;8.674;2023-04-24T08:18:44;12.30;95.20
21770;DHT22;11046;49.558;8.674;2023-04-24T08:21:44;12.20;94.60
21770;DHT22;11046;49.558;8.674;2023-04-24T08:24:45;12.00;94.60
21770;DHT22;11046;49.558;8.674;2023-04-24T08:27:45;12.00;94.70
21770;DHT22;11046;49.558;8.674;2023-04-24T08:30:46;12.00;94.80
21770;DHT22;11046;49.558;8.674;2023-04-24T08:33:48;11.90;94.70
21770;DHT22;11046;49.558;8.674;2023-04-24T08:36:48;11.80;94.30
21770;DHT22;11046;49.558;8.674;2023-04-24T08:39:49;11.70;94.10
21770;DHT22;11046;49.558;8.674;2023-04-24T08:42:53;11.70;93.70
21770;DHT22;11046;49.558;8.674;2023-04-24T08:45:56;11.60;93.80
21770;DHT22;11046;49.558;8.674;2023-04-24T08:48:57;11.60;93.40
21770;DHT22;11046;49.558;8.674;2023-04-24T08:51:58;11.60;93.10
21770;DHT22;11046;49.558;8.674;2023-04-24T08:55:01;11.70;93.00
21770;DHT22;11046;49.558;8.674;2023-04-24T08:58:02;11.80;92.80
21770;DHT22;11046;49.558;8.674;2023-04-24T09:01:03;11.90;92.80
21770;DHT22;11046;49.558;8.674;2023-04-24T09:04:07;12.00;92.70
21770;DHT22;11046;49.558;8.674;2023-04-24T09:07:10;12.10;92.50
21770;DHT22;11046;49.558;8.674;2023-04-24T09:10:12;12.00;92.10
21770;DHT22;11046;49.558;8.674;2023-04-24T09:13:13;11.90;91.90
21770;DHT22;11046;49.558;8.674;2023-04-24T09:16:14;11.80;91.70
21770;DHT22;11046;49.558;8.674;2023-04-24T09:19:15;11.90;92.00
21770;DHT22;11046;49.558;8.674;2023-04-24T09:22:15;11.90;91.90
21770;DHT22;11046;49.558;8.674;2023-04-24T09:25:16;12.00;91.80
21770;DHT22;11046;49.558;8.674;2023-04-24T09:28:17;12.10;91.40
21770;DHT22;11046;49.558;8.674;2023-04-24T09:31:19;11.90;91.40
21770;DHT22;11046;49.558;8.674;2023-04-24T09:34:26;11.80;91.70
21770;DHT22;11046;49.558;8.674;2023-04-24T09:37:32;11.70;91.90
21770;DHT22;11046;49.558;8.674;2023-04-24T09:40:35;11.50;92.20
21770;DHT22;11046;49.558;8.674;2023-04-24T09:43:36;11.60;92.40
21770;DHT22;11046;49.558;8.674;2023-04-24T09:46:36;11.60;92.30
21770;DHT22;11046;49.558;8.674;2023-04-24T09:49:37;11.60;92.20
21770;DHT22;11046;49.558;8.674;2023-04-24T09:52:44;11.60;92.10
21770;DHT22;11046;49.558;8.674;2023-04-24T09:55:45;11.60;91.90
21770;DHT22;11046;49.558;8.674;2023-04-24T09:58:48;11.60;91.90
21770;DHT22;11046;49.558;8.674;2023-04-24T10:01:49;11.50;91.80
21770;DHT22;11046;49.558;8.674;2023-04-24T10:04:57;11.50;91.90
21770;DHT22;11046;49.558;8.674;2023-04-24T10:08:11;11.50;92.00
21770;DHT22;11046;49.558;8.674;2023-04-24T10:11:11;11.50;92.00
21770;DHT22;11046;49.558;8.674;2023-04-24T10:14:19;11.60;92.00
21770;DHT22;11046;49.558;8.674;2023-04-24T10:17:21;11.60;91.80
21770;DHT22;11046;49.558;8.674;2023-04-24T10:20:26;11.40;91.50
21770;DHT22;11046;49.558;8.674;2023-04-24T10:23:27;11.20;91.60
21770;DHT22;11046;49.558;8.674;2023-04-24T10:26:28;11.00;91.80
21770;DHT22;11046;49.558;8.674;2023-04-24T10:29:31;10.90;92.00
21770;DHT22;11046;49.558;8.674;2023-04-24T10:32:32;11.10;92.10
21770;DHT22;11046;49.558;8.674;2023-04-24T10:35:36;11.10;92.10
21770;DHT22;11046;49.558;8.674;2023-04-24T10:38:40;11.20;91.80
21770;DHT22;11046;49.558;8.674;2023-04-24T10:41:41;11.20;91.90
21770;DHT22;11046;49.558;8.674;2023-04-24T10:44:42;11.40;92.00
21770;DHT22;11046;49.558;8.674;2023-04-24T10:47:47;11.80;91.90
21770;DHT22;11046;49.558;8.674;2023-04-24T10:50:52;12.10;91.90
21770;DHT22;11046;49.558;8.674;2023-04-24T10:53:52;12.40;91.50
21770;DHT22;11046;49.558;8.674;2023-04-24T10:57:39;12.40;91.20
21770;DHT22;11046;49.558;8.674;2023-04-24T11:00:19;12.30;90.90
21770;DHT22;11046;49.558;8.674;2023-04-24T11:03:25;12.10;90.90
21770;DHT22;11046;49.558;8.674;2023-04-24T11:06:34;11.90;90.90
21770;DHT22;11046;49.558;8.674;2023-04-24T11:09:36;11.80;91.10
21770;DHT22;11046;49.558;8.674;2023-04-24T11:12:37;11.70;91.10
21770;DHT22;11046;49.558;8.674;2023-04-24T11:15:41;11.70;91.30
21770;DHT22;11046;49.558;8.674;2023-04-24T11:18:43;11.70;91.40
21770;DHT22;11046;49.558;8.674;2023-04-24T11:21:47;11.70;91.50
21770;DHT22;11046;49.558;8.674;2023-04-24T11:28:03;11.60;91.50
21770;DHT22;11046;49.558;8.674;2023-04-24T11:31:34;11.50;91.50
21770;DHT22;11046;49.558;8.674;2023-04-24T11:34:38;11.60;91.50
21770;DHT22;11046;49.558;8.674;2023-04-24T11:37:40;11.50;91.40
21770;DHT22;11046;49.558;8.674;2023-04-24T11:40:41;11.50;91.50
21770;DHT22;11046;49.558;8.674;2023-04-24T11:43:43;11.50;91.40
21770;DHT22;11046;49.558;8.674;2023-04-24T11:46:43;11.50;91.40
21770;DHT22;11046;49.558;8.674;2023-04-24T11:49:44;11.50;91.50
21770;DHT22;11046;49.558;8.674;2023-04-24T11:52:46;11.60;91.60
21770;DHT22;11046;49.558;8.674;2023-04-24T11:55:47;11.80;91.60
21770;DHT22;11046;49.558;8.674;2023-04-24T11:58:48;11.90;91.50
21770;DHT22;11046;49.558;8.674;2023-04-24T12:01:49;12.00;91.30
21770;DHT22;11046;49.558;8.674;2023-04-24T12:04:50;11.90;91.10
21770;DHT22;11046;49.558;8.674;2023-04-24T12:07:52;11.90;91.00
21770;DHT22;11046;49.558;8.674;2023-04-24T12:10:53;12.00;90.90
21770;DHT22;11046;49.558;8.674;2023-04-24T12:13:53;12.20;90.90
21770;DHT22;11046;49.558;8.674;2023-04-24T12:16:54;12.30;91.10
21770;DHT22;11046;49.558;8.674;2023-04-24T12:20:03;12.60;90.50
21770;DHT22;11046;49.558;8.674;2023-04-24T12:23:04;12.80;90.00
21770;DHT22;11046;49.558;8.674;2023-04-24T12:26:05;13.00;89.10
21770;DHT22;11046;49.558;8.674;2023-04-24T12:29:06;13.30;88.80
21770;DHT22;11046;49.558;8.674;2023-04-24T12:32:16;13.40;88.00
21770;DHT22;11046;49.558;8.674;2023-04-24T12:35:21;13.50;87.40
21770;DHT22;11046;49.558;8.674;2023-04-24T12:38:24;13.40;86.80
21770;DHT22;11046;49.558;8.674;2023-04-24T12:41:25;13.20;86.40
21770;DHT22;11046;49.558;8.674;2023-04-24T12:44:30;13.10;86.30
21770;DHT22;11046;49.558;8.674;2023-04-24T12:47:32;12.90;86.40
21770;DHT22;11046;49.558;8.674;2023-04-24T12:50:33;12.70;86.40
21770;DHT22;11046;49.558;8.674;2023-04-24T12:53:34;12.60;86.70
21770;DHT22;11046;49.558;8.674;2023-04-24T12:56:34;12.40;86.70
21770;DHT22;11046;49.558;8.674;2023-04-24T12:59:36;12.30;87.00
21770;DHT22;11046;49.558;8.674;2023-04-24T13:02:37;12.30;87.00
21770;DHT22;11046;49.558;8.674;2023-04-24T13:05:38;12.30;87.10
21770;DHT22;11046;49.558;8.674;2023-04-24T13:08:38;12.30;87.30
21770;DHT22;11046;49.558;8.674;2023-04-24T13:11:39;12.30;86.90
21770;DHT22;11046;49.558;8.674;2023-04-24T13:14:40;12.20;87.00
21770;DHT22;11046;49.558;8.674;2023-04-24T13:17:40;12.10;87.00
21770;DHT22;11046;49.558;8.674;2023-04-24T13:20:41;12.20;87.20
21770;DHT22;11046;49.558;8.674;2023-04-24T13:23:42;12.30;87.10
21770;DHT22;11046;49.558;8.674;2023-04-24T13:26:42;12.30;86.90
21770;DHT22;11046;49.558;8.674;2023-04-24T13:29:43;12.30;86.80
21770;DHT22;11046;49.558;8.674;2023-04-24T13:32:44;12.30;86.90
21770;DHT22;11046;49.558;8.674;2023-04-24T13:35:44;12.30;87.00
21770;DHT22;11046;49.558;8.674;2023-04-24T13:38:45;12.50;87.20
21770;DHT22;11046;49.558;8.674;2023-04-24T13:41:46;12.70;86.90
21770;DHT22;11046;49.558;8.674;2023-04-24T13:44:48;12.80;87.00
21770;DHT22;11046;49.558;8.674;2023-04-24T13:47:49;13.20;87.40
21770;DHT22;11046;49.558;8.674;2023-04-24T13:50:49;13.50;86.80
21770;DHT22;11046;49.558;8.674;2023-04-24T13:53:50;13.60;85.50
21770;DHT22;11046;49.558;8.674;2023-04-24T13:56:51;13.40;84.80
21770;DHT22;11046;49.558;8.674;2023-04-24T13:59:52;13.30;84.30
21770;DHT22;11046;49.558;8.674;2023-04-24T14:02:52;13.40;84.60
21770;DHT22;11046;49.558;8.674;2023-04-24T14:05:53;13.30;83.90
21770;DHT22;11046;49.558;8.674;2023-04-24T14:08:53;13.30;84.10
21770;DHT22;11046;49.558;8.674;2023-04-24T14:11:54;13.20;84.00
21770;DHT22;11046;49.558;8.674;2023-04-24T14:14:55;13.00;83.70
21770;DHT22;11046;49.558;8.674;2023-04-24T14:17:55;12.90;83.80
21770;DHT22;11046;49.558;8.674;2023-04-24T14:20:56;12.80;83.90
21770;DHT22;11046;49.558;8.674;2023-04-24T14:23:56;12.80;84.20
21770;DHT22;11046;49.558;8.674;2023-04-24T14:26:57;12.80;84.10
21770;DHT22;11046;49.558;8.674;2023-04-24T14:29:58;12.80;83.80
21770;DHT22;11046;49.558;8.674;2023-04-24T14:32:58;12.90;83.30
21770;DHT22;11046;49.558;8.674;2023-04-24T14:35:59;12.90;82.80
21770;DHT22;11046;49.558;8.674;2023-04-24T14:38:59;12.90;83.00
21770;DHT22;11046;49.558;8.674;2023-04-24T14:42:02;12.90;82.80
21770;DHT22;11046;49.558;8.674;2023-04-24T14:45:03;12.80;83.00
21770;DHT22;11046;49.558;8.674;2023-04-24T14:48:04;13.00;83.20
21770;DHT22;11046;49.558;8.674;2023-04-24T14:51:05;13.20;83.60
21770;DHT22;11046;49.558;8.674;2023-04-24T14:54:06;13.40;83.50
21770;DHT22;11046;49.558;8.674;2023-04-24T14:57:07;13.70;84.10
21770;DHT22;11046;49.558;8.674;2023-04-24T15:00:08;14.20;83.80
21770;DHT22;11046;49.558;8.674;2023-04-24T15:03:10;14.40;82.60
21770;DHT22;11046;49.558;8.674;2023-04-24T15:06:10;14.30;81.90
21770;DHT22;11046;49.558;8.674;2023-04-24T15:09:11;14.10;81.70
21770;DHT22;11046;49.558;8.674;2023-04-24T15:12:12;13.90;82.10
21770;DHT22;11046;49.558;8.674;2023-04-24T15:15:12;13.80;82.40
21770;DHT22;11046;49.558;8.674;2023-04-24T15:18:13;13.60;83.00
21770;DHT22;11046;49.558;8.674;2023-04-24T15:21:14;13.60;83.20
21770;DHT22;11046;49.558;8.674;2023-04-24T15:24:14;13.50;83.00
21770;DHT22;11046;49.558;8.674;2023-04-24T15:27:15;13.50;83.20
21770;DHT22;11046;49.558;8.674;2023-04-24T15:30:16;13.40;83.30
21770;DHT22;11046;49.558;8.674;2023-04-24T15:33:16;13.20;83.40
21770;DHT22;11046;49.558;8.674;2023-04-24T15:36:17;13.00;83.70
21770;DHT22;11046;49.558;8.674;2023-04-24T15:39:22;12.80;85.20
21770;DHT22;11046;49.558;8.674;2023-04-24T15:42:23;12.70;85.40
21770;DHT22;11046;49.558;8.674;2023-04-24T15:45:24;12.70;86.70
21770;DHT22;11046;49.558;8.674;2023-04-24T15:48:25;12.90;86.40
21770;DHT22;11046;49.558;8.674;2023-04-24T15:51:26;13.20;86.50
21770;DHT22;11046;49.558;8.674;2023-04-24T15:54:26;13.40;85.50
21770;DHT22;11046;49.558;8.674;2023-04-24T15:57:27;13.40;84.90
21770;DHT22;11046;49.558;8.674;2023-04-24T16:00:28;13.40;84.70
21770;DHT22;11046;49.558;8.674;2023-04-24T16:03:33;13.40;84.90
21770;DHT22;11046;49.558;8.674;2023-04-24T16:06:34;13.40;84.40
21770;DHT22;11046;49.558;8.674;2023-04-24T16:09:34;13.30;84.30
21770;DHT22;11046;49.558;8.674;2023-04-24T16:12:35;13.20;84.10
21770;DHT22;11046;49.558;8.674;2023-04-24T16:15:36;13.10;84.60
21770;DHT22;11046;49.558;8.674;2023-04-24T16:18:36;13.10;84.80
21770;DHT22;11046;49.558;8.674;2023-04-24T16:21:37;13.20;84.90
21770;DHT22;11046;49.558;8.674;2023-04-24T16:24:37;13.30;84.50
21770;DHT22;11046;49.558;8.674;2023-04-24T16:27:38;13.40;84.20
21770;DHT22;11046;49.558;8.674;2023-04-24T16:30:38;13.30;83.90
21770;DHT22;11046;49.558;8.674;2023-04-24T16:33:39;13.10;84.10
21770;DHT22;11046;49.558;8.674;2023-04-24T16:36:41;13.00;84.30
21770;DHT22;11046;49.558;8.674;2023-04-24T16:39:41;13.00;84.50
21770;DHT22;11046;49.558;8.674;2023-04-24T16:42:44;13.10;84.80
21770;DHT22;11046;49.558;8.674;2023-04-24T16:45:45;13.10;84.80
21770;DHT22;11046;49.558;8.674;2023-04-24T16:48:45;13.10;84.80
21770;DHT22;11046;49.558;8.674;2023-04-24T16:51:46;13.10;85.20
21770;DHT22;11046;49.558;8.674;2023-04-24T16:54:46;13.20;85.50
21770;DHT22;11046;49.558;8.674;2023-04-24T16:57:47;13.20;85.30
21770;DHT22;11046;49.558;8.674;2023-04-24T17:00:48;13.30;85.50
21770;DHT22;11046;49.558;8.674;2023-04-24T17:03:49;13.20;85.20
21770;DHT22;11046;49.558;8.674;2023-04-24T17:06:50;13.10;85.00
21770;DHT22;11046;49.558;8.674;2023-04-24T17:09:51;13.00;85.00
21770;DHT22;11046;49.558;8.674;2023-04-24T17:12:52;13.00;85.00
21770;DHT22;11046;49.558;8.674;2023-04-24T17:15:52;13.00;85.00
21770;DHT22;11046;49.558;8.674;2023-04-24T17:18:53;12.90;85.10
21770;DHT22;11046;49.558;8.674;2023-04-24T17:21:53;12.80;85.10
21770;DHT22;11046;49.558;8.674;2023-04-24T17:24:54;12.60;85.00
21770;DHT22;11046;49.558;8.674;2023-04-24T17:27:54;12.50;85.20
21770;DHT22;11046;49.558;8.674;2023-04-24T17:30:56;12.40;85.50
21770;DHT22;11046;49.558;8.674;2023-04-24T17:33:59;12.30;85.80
21770;DHT22;11046;49.558;8.674;2023-04-24T17:37:00;12.20;86.00
21770;DHT22;11046;49.558;8.674;2023-04-24T17:40:01;12.10;86.50
21770;DHT22;11046;49.558;8.674;2023-04-24T17:43:02;12.10;86.70
21770;DHT22;11046;49.558;8.674;2023-04-24T17:46:03;12.10;86.90
21770;DHT22;11046;49.558;8.674;2023-04-24T17:49:04;12.00;87.10
21770;DHT22;11046;49.558;8.674;2023-04-24T17:52:05;11.90;87.50
21770;DHT22;11046;49.558;8.674;2023-04-24T17:55:06;11.90;87.60
21770;DHT22;11046;49.558;8.674;2023-04-24T17:58:07;11.80;87.70
21770;DHT22;11046;49.558;8.674;2023-04-24T18:01:07;11.80;87.70
21770;DHT22;11046;49.558;8.674;2023-04-24T18:04:08;11.80;87.80
21770;DHT22;11046;49.558;8.674;2023-04-24T18:07:08;11.90;87.90
21770;DHT22;11046;49.558;8.674;2023-04-24T18:10:09;11.90;87.80
21770;DHT22;11046;49.558;8.674;2023-04-24T18:13:10;11.90;87.70
21770;DHT22;11046;49.558;8.674;2023-04-24T18:16:11;11.90;87.80
21770;DHT22;11046;49.558;8.674;2023-04-24T18:19:12;11.90;87.90
21770;DHT22;11046;49.558;8.674;2023-04-24T18:22:12;11.90;88.10
21770;DHT22;11046;49.558;8.674;2023-04-24T18:25:14;11.80;88.60
21770;DHT22;11046;49.558;8.674;2023-04-24T18:28:14;11.70;89.00
21770;DHT22;11046;49.558;8.674;2023-04-24T18:31:15;11.70;89.30
21770;DHT22;11046;49.558;8.674;2023-04-24T18:34:15;11.60;89.50
21770;DHT22;11046;49.558;8.674;2023-04-24T18:37:16;11.60;89.80
21770;DHT22;11046;49.558;8.674;2023-04-24T18:40:17;11.50;90.10
21770;DHT22;11046;49.558;8.674;2023-04-24T18:43:17;11.40;90.30
21770;DHT22;11046;49.558;8.674;2023-04-24T18:46:18;11.40;90.30
21770;DHT22;11046;49.558;8.674;2023-04-24T18:49:18;11.30;90.50
21770;DHT22;11046;49.558;8.674;2023-04-24T18:52:19;11.20;90.60
21770;DHT22;11046;49.558;8.674;2023-04-24T18:55:20;11.10;90.80
21770;DHT22;11046;49.558;8.674;2023-04-24T18:58:20;11.00;91.10
21770;DHT22;11046;49.558;8.674;2023-04-24T19:01:21;10.90;91.20
21770;DHT22;11046;49.558;8.674;2023-04-24T19:04:22;10.80;91.50
21770;DHT22;11046;49.558;8.674;2023-04-24T19:07:23;10.80;91.60
21770;DHT22;11046;49.558;8.674;2023-04-24T19:10:23;10.70;91.70
21770;DHT22;11046;49.558;8.674;2023-04-24T19:13:24;10.70;91.90